Terminal Aerodrome Forecast
Issued by NWS Blacksburg, VA

Home | Current Version | Previous Version | Text Only | Print | Product List | Glossary On
Versions: 1 2 3 4 5 6 7 8 9 10 11 12 13 14 15 16 17 18 19 20
000
FTUS41 KRNK 251219 AAA
TAFLYH
TAF AMD
KLYH 251219Z 2512/2612 00000KT P6SM SCT012
      TEMPO 2512/2514 BKN010
     FM251600 19010KT P6SM BKN040
     FM252300 20004KT P6SM SCT250=

USA.gov is the U.S. government's official web portal to all federal, state and local government web resources and services.